sensor_id;sensor_type;location;lat;lon;timestamp;temperature;humidity
14471;DHT22;7321;50.802;4.336;2024-01-16T00:01:43;3.00;99.90
14471;DHT22;7321;50.802;4.336;2024-01-16T00:04:10;2.80;99.90
14471;DHT22;7321;50.802;4.336;2024-01-16T00:06:40;2.60;99.90
14471;DHT22;7321;50.802;4.336;2024-01-16T00:09:06;2.60;99.90
14471;DHT22;7321;50.802;4.336;2024-01-16T00:11:32;2.70;99.90
14471;DHT22;7321;50.802;4.336;2024-01-16T00:13:58;2.70;99.90
14471;DHT22;7321;50.802;4.336;2024-01-16T00:16:25;2.50;99.90
14471;DHT22;7321;50.802;4.336;2024-01-16T00:18:50;2.40;99.90
14471;DHT22;7321;50.802;4.336;2024-01-16T00:21:16;2.50;99.90
14471;DHT22;7321;50.802;4.336;2024-01-16T00:23:42;2.60;99.90
14471;DHT22;7321;50.802;4.336;2024-01-16T00:26:08;2.70;99.90
14471;DHT22;7321;50.802;4.336;2024-01-16T00:28:33;2.90;99.90
14471;DHT22;7321;50.802;4.336;2024-01-16T00:30:59;2.90;99.90
14471;DHT22;7321;50.802;4.336;2024-01-16T00:33:25;2.80;99.90
14471;DHT22;7321;50.802;4.336;2024-01-16T00:35:53;2.80;99.90
14471;DHT22;7321;50.802;4.336;2024-01-16T00:38:18;2.80;99.90
14471;DHT22;7321;50.802;4.336;2024-01-16T00:40:44;2.80;99.90
14471;DHT22;7321;50.802;4.336;2024-01-16T00:43:11;2.80;99.90
14471;DHT22;7321;50.802;4.336;2024-01-16T00:45:38;2.80;99.90
14471;DHT22;7321;50.802;4.336;2024-01-16T00:48:04;2.90;99.90
14471;DHT22;7321;50.802;4.336;2024-01-16T00:50:31;2.70;99.90
14471;DHT22;7321;50.802;4.336;2024-01-16T00:52:57;2.70;99.90
14471;DHT22;7321;50.802;4.336;2024-01-16T00:55:23;2.80;99.90
14471;DHT22;7321;50.802;4.336;2024-01-16T00:57:49;2.70;99.90
14471;DHT22;7321;50.802;4.336;2024-01-16T01:00:15;2.80;99.90
14471;DHT22;7321;50.802;4.336;2024-01-16T01:02:41;2.80;99.90
14471;DHT22;7321;50.802;4.336;2024-01-16T01:05:07;2.70;99.90
14471;DHT22;7321;50.802;4.336;2024-01-16T01:07:33;2.70;99.90
14471;DHT22;7321;50.802;4.336;2024-01-16T01:09:59;2.60;99.90
14471;DHT22;7321;50.802;4.336;2024-01-16T01:12:25;2.70;99.90
14471;DHT22;7321;50.802;4.336;2024-01-16T01:14:50;2.70;99.90
14471;DHT22;7321;50.802;4.336;2024-01-16T01:17:16;2.60;99.90
14471;DHT22;7321;50.802;4.336;2024-01-16T01:19:42;2.30;99.90
14471;DHT22;7321;50.802;4.336;2024-01-16T01:22:08;2.10;99.90
14471;DHT22;7321;50.802;4.336;2024-01-16T01:24:34;2.10;99.90
14471;DHT22;7321;50.802;4.336;2024-01-16T01:27:00;2.20;99.90
14471;DHT22;7321;50.802;4.336;2024-01-16T01:29:26;2.10;99.90
14471;DHT22;7321;50.802;4.336;2024-01-16T01:31:51;2.10;99.90
14471;DHT22;7321;50.802;4.336;2024-01-16T01:34:17;2.10;99.90
14471;DHT22;7321;50.802;4.336;2024-01-16T01:36:43;2.20;99.90
14471;DHT22;7321;50.802;4.336;2024-01-16T01:39:10;2.00;99.90
14471;DHT22;7321;50.802;4.336;2024-01-16T01:41:37;2.10;99.90
14471;DHT22;7321;50.802;4.336;2024-01-16T01:44:02;2.10;99.90
14471;DHT22;7321;50.802;4.336;2024-01-16T01:46:29;2.20;99.90
14471;DHT22;7321;50.802;4.336;2024-01-16T01:48:55;2.20;99.90
14471;DHT22;7321;50.802;4.336;2024-01-16T01:51:21;2.30;99.90
14471;DHT22;7321;50.802;4.336;2024-01-16T01:53:49;2.40;99.90
14471;DHT22;7321;50.802;4.336;2024-01-16T01:56:20;2.40;99.90
14471;DHT22;7321;50.802;4.336;2024-01-16T01:58:52;2.50;99.90
14471;DHT22;7321;50.802;4.336;2024-01-16T02:01:19;2.40;99.90
14471;DHT22;7321;50.802;4.336;2024-01-16T02:03:46;2.40;99.90
14471;DHT22;7321;50.802;4.336;2024-01-16T02:06:13;2.40;99.90
14471;DHT22;7321;50.802;4.336;2024-01-16T02:08:40;2.30;99.90
14471;DHT22;7321;50.802;4.336;2024-01-16T02:11:06;2.30;99.90
14471;DHT22;7321;50.802;4.336;2024-01-16T02:13:32;2.40;99.90
14471;DHT22;7321;50.802;4.336;2024-01-16T02:15:58;2.50;99.90
14471;DHT22;7321;50.802;4.336;2024-01-16T02:18:24;2.50;99.90
14471;DHT22;7321;50.802;4.336;2024-01-16T02:20:50;2.40;99.90
14471;DHT22;7321;50.802;4.336;2024-01-16T02:23:26;2.50;99.90
14471;DHT22;7321;50.802;4.336;2024-01-16T02:25:53;2.40;99.90
14471;DHT22;7321;50.802;4.336;2024-01-16T02:28:20;2.30;99.90
14471;DHT22;7321;50.802;4.336;2024-01-16T02:30:46;2.40;99.90
14471;DHT22;7321;50.802;4.336;2024-01-16T02:33:11;2.50;99.90
14471;DHT22;7321;50.802;4.336;2024-01-16T02:35:37;2.40;99.90
14471;DHT22;7321;50.802;4.336;2024-01-16T02:38:03;2.40;99.90
14471;DHT22;7321;50.802;4.336;2024-01-16T02:40:29;2.20;99.90
14471;DHT22;7321;50.802;4.336;2024-01-16T02:42:55;2.00;99.90
14471;DHT22;7321;50.802;4.336;2024-01-16T02:45:22;2.00;99.90
14471;DHT22;7321;50.802;4.336;2024-01-16T02:47:48;2.20;99.90
14471;DHT22;7321;50.802;4.336;2024-01-16T02:50:14;2.30;99.90
14471;DHT22;7321;50.802;4.336;2024-01-16T02:52:40;2.40;99.90
14471;DHT22;7321;50.802;4.336;2024-01-16T02:55:07;2.40;99.90
14471;DHT22;7321;50.802;4.336;2024-01-16T02:57:32;2.30;99.90
14471;DHT22;7321;50.802;4.336;2024-01-16T02:59:58;2.20;99.90
14471;DHT22;7321;50.802;4.336;2024-01-16T03:02:24;2.20;99.90
14471;DHT22;7321;50.802;4.336;2024-01-16T03:04:50;2.40;99.90
14471;DHT22;7321;50.802;4.336;2024-01-16T03:07:16;2.50;99.90
14471;DHT22;7321;50.802;4.336;2024-01-16T03:09:42;2.60;99.90
14471;DHT22;7321;50.802;4.336;2024-01-16T03:12:08;2.60;99.90
14471;DHT22;7321;50.802;4.336;2024-01-16T03:14:33;2.50;99.90
14471;DHT22;7321;50.802;4.336;2024-01-16T03:17:02;2.20;99.90
14471;DHT22;7321;50.802;4.336;2024-01-16T03:19:28;2.10;99.90
14471;DHT22;7321;50.802;4.336;2024-01-16T03:21:54;2.30;99.90
14471;DHT22;7321;50.802;4.336;2024-01-16T03:24:20;2.00;99.90
14471;DHT22;7321;50.802;4.336;2024-01-16T03:26:46;2.10;99.90
14471;DHT22;7321;50.802;4.336;2024-01-16T03:29:12;2.20;99.90
14471;DHT22;7321;50.802;4.336;2024-01-16T03:31:38;2.30;99.90
14471;DHT22;7321;50.802;4.336;2024-01-16T03:34:04;2.30;99.90
14471;DHT22;7321;50.802;4.336;2024-01-16T03:36:29;2.20;99.90
14471;DHT22;7321;50.802;4.336;2024-01-16T03:38:56;2.30;99.90
14471;DHT22;7321;50.802;4.336;2024-01-16T03:41:21;2.50;99.90
14471;DHT22;7321;50.802;4.336;2024-01-16T03:43:47;2.20;99.90
14471;DHT22;7321;50.802;4.336;2024-01-16T03:46:13;2.00;99.90
14471;DHT22;7321;50.802;4.336;2024-01-16T03:48:39;2.00;99.90
14471;DHT22;7321;50.802;4.336;2024-01-16T03:51:05;2.10;99.90
14471;DHT22;7321;50.802;4.336;2024-01-16T03:53:33;1.80;99.90
14471;DHT22;7321;50.802;4.336;2024-01-16T03:55:59;1.90;99.90
14471;DHT22;7321;50.802;4.336;2024-01-16T03:58:24;1.70;99.90
14471;DHT22;7321;50.802;4.336;2024-01-16T04:00:50;1.70;99.90
14471;DHT22;7321;50.802;4.336;2024-01-16T04:03:17;1.70;99.90
14471;DHT22;7321;50.802;4.336;2024-01-16T04:05:43;1.80;99.90
14471;DHT22;7321;50.802;4.336;2024-01-16T04:08:08;1.90;99.90
14471;DHT22;7321;50.802;4.336;2024-01-16T04:10:35;2.00;99.90
14471;DHT22;7321;50.802;4.336;2024-01-16T04:13:03;1.90;99.90
14471;DHT22;7321;50.802;4.336;2024-01-16T04:15:29;2.00;99.90
14471;DHT22;7321;50.802;4.336;2024-01-16T04:17:55;1.90;99.90
14471;DHT22;7321;50.802;4.336;2024-01-16T04:20:21;1.90;99.90
14471;DHT22;7321;50.802;4.336;2024-01-16T04:22:47;1.80;99.90
14471;DHT22;7321;50.802;4.336;2024-01-16T04:25:13;1.90;99.90
14471;DHT22;7321;50.802;4.336;2024-01-16T04:27:39;1.90;99.90
14471;DHT22;7321;50.802;4.336;2024-01-16T04:30:05;1.90;99.90
14471;DHT22;7321;50.802;4.336;2024-01-16T04:32:31;2.00;99.90
14471;DHT22;7321;50.802;4.336;2024-01-16T04:34:57;2.00;99.90
14471;DHT22;7321;50.802;4.336;2024-01-16T04:37:23;1.70;99.90
14471;DHT22;7321;50.802;4.336;2024-01-16T04:39:49;1.60;99.90
14471;DHT22;7321;50.802;4.336;2024-01-16T04:42:15;1.60;99.90
14471;DHT22;7321;50.802;4.336;2024-01-16T04:44:43;1.60;99.90
14471;DHT22;7321;50.802;4.336;2024-01-16T04:47:09;1.70;99.90
14471;DHT22;7321;50.802;4.336;2024-01-16T04:49:37;1.70;99.90
14471;DHT22;7321;50.802;4.336;2024-01-16T04:52:03;1.80;99.90
14471;DHT22;7321;50.802;4.336;2024-01-16T04:54:29;1.80;99.90
14471;DHT22;7321;50.802;4.336;2024-01-16T04:56:55;1.70;99.90
14471;DHT22;7321;50.802;4.336;2024-01-16T04:59:20;1.80;99.90
14471;DHT22;7321;50.802;4.336;2024-01-16T05:01:46;1.90;99.90
14471;DHT22;7321;50.802;4.336;2024-01-16T05:04:12;1.90;99.90
14471;DHT22;7321;50.802;4.336;2024-01-16T05:06:38;1.90;99.90
14471;DHT22;7321;50.802;4.336;2024-01-16T05:09:04;1.80;99.90
14471;DHT22;7321;50.802;4.336;2024-01-16T05:11:30;1.70;99.90
14471;DHT22;7321;50.802;4.336;2024-01-16T05:13:56;1.70;99.90
14471;DHT22;7321;50.802;4.336;2024-01-16T05:16:25;1.70;99.90
14471;DHT22;7321;50.802;4.336;2024-01-16T05:18:51;1.60;99.90
14471;DHT22;7321;50.802;4.336;2024-01-16T05:21:17;1.50;99.90
14471;DHT22;7321;50.802;4.336;2024-01-16T05:23:43;1.60;99.90
14471;DHT22;7321;50.802;4.336;2024-01-16T05:26:09;1.60;99.90
14471;DHT22;7321;50.802;4.336;2024-01-16T05:28:35;1.60;99.90
14471;DHT22;7321;50.802;4.336;2024-01-16T05:31:00;1.70;99.90
14471;DHT22;7321;50.802;4.336;2024-01-16T05:33:26;1.70;99.90
14471;DHT22;7321;50.802;4.336;2024-01-16T05:35:52;1.60;99.90
14471;DHT22;7321;50.802;4.336;2024-01-16T05:38:18;1.50;99.90
14471;DHT22;7321;50.802;4.336;2024-01-16T05:40:43;1.50;99.90
14471;DHT22;7321;50.802;4.336;2024-01-16T05:43:12;1.50;99.90
14471;DHT22;7321;50.802;4.336;2024-01-16T05:45:38;1.40;99.90
14471;DHT22;7321;50.802;4.336;2024-01-16T05:48:04;1.30;99.90
14471;DHT22;7321;50.802;4.336;2024-01-16T05:50:33;1.20;99.90
14471;DHT22;7321;50.802;4.336;2024-01-16T05:52:59;1.30;99.90
14471;DHT22;7321;50.802;4.336;2024-01-16T05:55:25;1.20;99.90
14471;DHT22;7321;50.802;4.336;2024-01-16T05:57:51;1.10;99.90
14471;DHT22;7321;50.802;4.336;2024-01-16T06:00:17;1.10;99.90
14471;DHT22;7321;50.802;4.336;2024-01-16T06:02:44;1.00;99.90
14471;DHT22;7321;50.802;4.336;2024-01-16T06:05:10;1.20;99.90
14471;DHT22;7321;50.802;4.336;2024-01-16T06:07:36;1.40;99.90
14471;DHT22;7321;50.802;4.336;2024-01-16T06:10:02;1.30;99.90
14471;DHT22;7321;50.802;4.336;2024-01-16T06:12:28;1.40;99.90
14471;DHT22;7321;50.802;4.336;2024-01-16T06:14:54;1.20;99.90
14471;DHT22;7321;50.802;4.336;2024-01-16T06:17:20;1.30;99.90
14471;DHT22;7321;50.802;4.336;2024-01-16T06:19:46;1.30;99.90
14471;DHT22;7321;50.802;4.336;2024-01-16T06:22:12;1.10;99.90
14471;DHT22;7321;50.802;4.336;2024-01-16T06:24:38;1.10;99.90
14471;DHT22;7321;50.802;4.336;2024-01-16T06:27:07;0.90;99.90
14471;DHT22;7321;50.802;4.336;2024-01-16T06:29:33;0.90;99.90
14471;DHT22;7321;50.802;4.336;2024-01-16T06:31:59;1.00;99.90
14471;DHT22;7321;50.802;4.336;2024-01-16T06:34:25;1.20;99.90
14471;DHT22;7321;50.802;4.336;2024-01-16T06:36:51;1.20;99.90
14471;DHT22;7321;50.802;4.336;2024-01-16T06:39:17;1.20;99.90
14471;DHT22;7321;50.802;4.336;2024-01-16T06:41:43;1.30;99.90
14471;DHT22;7321;50.802;4.336;2024-01-16T06:44:09;1.30;99.90
14471;DHT22;7321;50.802;4.336;2024-01-16T06:46:35;1.30;99.90
14471;DHT22;7321;50.802;4.336;2024-01-16T06:49:01;1.30;99.90
14471;DHT22;7321;50.802;4.336;2024-01-16T06:51:27;1.20;99.90
14471;DHT22;7321;50.802;4.336;2024-01-16T06:53:53;1.20;99.90
14471;DHT22;7321;50.802;4.336;2024-01-16T06:56:19;1.20;99.90
14471;DHT22;7321;50.802;4.336;2024-01-16T06:58:45;1.10;99.90
14471;DHT22;7321;50.802;4.336;2024-01-16T07:01:11;1.10;99.90
14471;DHT22;7321;50.802;4.336;2024-01-16T07:03:37;1.00;99.90
14471;DHT22;7321;50.802;4.336;2024-01-16T07:06:03;0.90;99.90
14471;DHT22;7321;50.802;4.336;2024-01-16T07:08:29;0.90;99.90
14471;DHT22;7321;50.802;4.336;2024-01-16T07:10:55;1.10;99.90
14471;DHT22;7321;50.802;4.336;2024-01-16T07:13:22;1.00;99.90
14471;DHT22;7321;50.802;4.336;2024-01-16T07:15:48;1.20;99.90
14471;DHT22;7321;50.802;4.336;2024-01-16T07:18:14;1.20;99.90
14471;DHT22;7321;50.802;4.336;2024-01-16T07:20:40;1.00;99.90
14471;DHT22;7321;50.802;4.336;2024-01-16T07:23:06;1.10;99.90
14471;DHT22;7321;50.802;4.336;2024-01-16T07:25:32;1.10;99.90
14471;DHT22;7321;50.802;4.336;2024-01-16T07:27:58;1.20;99.90
14471;DHT22;7321;50.802;4.336;2024-01-16T07:30:24;1.30;99.90
14471;DHT22;7321;50.802;4.336;2024-01-16T07:32:50;1.20;99.90
14471;DHT22;7321;50.802;4.336;2024-01-16T07:35:16;1.10;99.90
14471;DHT22;7321;50.802;4.336;2024-01-16T07:37:42;1.00;99.90
14471;DHT22;7321;50.802;4.336;2024-01-16T07:40:09;1.00;99.90
14471;DHT22;7321;50.802;4.336;2024-01-16T07:42:35;1.00;99.90
14471;DHT22;7321;50.802;4.336;2024-01-16T07:45:03;0.90;99.90
14471;DHT22;7321;50.802;4.336;2024-01-16T07:47:33;0.80;99.90
14471;DHT22;7321;50.802;4.336;2024-01-16T07:50:14;0.90;99.90
14471;DHT22;7321;50.802;4.336;2024-01-16T07:52:45;0.70;99.90
14471;DHT22;7321;50.802;4.336;2024-01-16T07:55:32;0.80;99.90
14471;DHT22;7321;50.802;4.336;2024-01-16T08:00:39;0.70;99.90
14471;DHT22;7321;50.802;4.336;2024-01-16T08:03:17;0.80;99.90
14471;DHT22;7321;50.802;4.336;2024-01-16T08:05:49;1.00;99.90
14471;DHT22;7321;50.802;4.336;2024-01-16T08:08:18;0.80;99.90
14471;DHT22;7321;50.802;4.336;2024-01-16T08:10:43;0.90;99.90
14471;DHT22;7321;50.802;4.336;2024-01-16T08:13:12;1.00;99.90
14471;DHT22;7321;50.802;4.336;2024-01-16T08:15:38;1.00;99.90
14471;DHT22;7321;50.802;4.336;2024-01-16T08:18:04;0.80;99.90
14471;DHT22;7321;50.802;4.336;2024-01-16T08:20:30;0.90;99.90
14471;DHT22;7321;50.802;4.336;2024-01-16T08:22:56;1.00;99.90
14471;DHT22;7321;50.802;4.336;2024-01-16T08:25:22;1.20;99.90
14471;DHT22;7321;50.802;4.336;2024-01-16T08:27:48;1.30;99.90
14471;DHT22;7321;50.802;4.336;2024-01-16T08:30:14;1.40;99.90
14471;DHT22;7321;50.802;4.336;2024-01-16T08:32:39;1.60;99.90
14471;DHT22;7321;50.802;4.336;2024-01-16T08:35:06;1.60;99.90
14471;DHT22;7321;50.802;4.336;2024-01-16T08:37:35;1.70;99.90
14471;DHT22;7321;50.802;4.336;2024-01-16T08:40:14;1.70;99.90
14471;DHT22;7321;50.802;4.336;2024-01-16T08:42:40;1.60;99.90
14471;DHT22;7321;50.802;4.336;2024-01-16T08:45:12;1.50;99.90
14471;DHT22;7321;50.802;4.336;2024-01-16T08:47:43;1.60;99.90
14471;DHT22;7321;50.802;4.336;2024-01-16T08:50:14;1.70;99.90
14471;DHT22;7321;50.802;4.336;2024-01-16T08:52:46;1.80;99.90
14471;DHT22;7321;50.802;4.336;2024-01-16T08:55:16;2.00;99.90
14471;DHT22;7321;50.802;4.336;2024-01-16T08:57:51;2.00;99.90
14471;DHT22;7321;50.802;4.336;2024-01-16T09:00:44;2.00;99.90
14471;DHT22;7321;50.802;4.336;2024-01-16T09:03:11;2.00;99.90
14471;DHT22;7321;50.802;4.336;2024-01-16T09:05:43;2.10;99.90
14471;DHT22;7321;50.802;4.336;2024-01-16T09:08:09;2.00;99.90
14471;DHT22;7321;50.802;4.336;2024-01-16T09:10:38;2.20;99.90
14471;DHT22;7321;50.802;4.336;2024-01-16T09:13:03;2.20;99.90
14471;DHT22;7321;50.802;4.336;2024-01-16T09:15:29;2.30;99.90
14471;DHT22;7321;50.802;4.336;2024-01-16T09:17:55;2.40;99.90
14471;DHT22;7321;50.802;4.336;2024-01-16T09:20:21;2.40;99.90
14471;DHT22;7321;50.802;4.336;2024-01-16T09:22:47;2.40;99.90
14471;DHT22;7321;50.802;4.336;2024-01-16T09:25:13;2.50;99.90
14471;DHT22;7321;50.802;4.336;2024-01-16T09:27:39;2.40;99.90
14471;DHT22;7321;50.802;4.336;2024-01-16T09:30:05;2.30;99.90
14471;DHT22;7321;50.802;4.336;2024-01-16T09:32:52;2.40;99.90
14471;DHT22;7321;50.802;4.336;2024-01-16T09:35:24;2.70;99.90
14471;DHT22;7321;50.802;4.336;2024-01-16T09:38:03;2.50;99.90
14471;DHT22;7321;50.802;4.336;2024-01-16T09:40:30;2.40;99.90
14471;DHT22;7321;50.802;4.336;2024-01-16T09:42:57;2.30;99.90
14471;DHT22;7321;50.802;4.336;2024-01-16T09:45:24;2.20;99.90
14471;DHT22;7321;50.802;4.336;2024-01-16T09:47:51;2.20;99.90
14471;DHT22;7321;50.802;4.336;2024-01-16T09:50:18;2.10;99.90
14471;DHT22;7321;50.802;4.336;2024-01-16T09:52:48;2.20;99.90
14471;DHT22;7321;50.802;4.336;2024-01-16T09:55:15;2.20;99.90
14471;DHT22;7321;50.802;4.336;2024-01-16T09:57:41;2.00;99.90
14471;DHT22;7321;50.802;4.336;2024-01-16T10:00:11;1.90;99.90
14471;DHT22;7321;50.802;4.336;2024-01-16T10:02:41;1.90;99.90
14471;DHT22;7321;50.802;4.336;2024-01-16T10:05:11;2.00;99.90
14471;DHT22;7321;50.802;4.336;2024-01-16T10:07:55;2.30;99.90
14471;DHT22;7321;50.802;4.336;2024-01-16T10:17:01;2.60;99.90
14471;DHT22;7321;50.802;4.336;2024-01-16T10:20:11;2.20;99.90
14471;DHT22;7321;50.802;4.336;2024-01-16T10:22:52;2.40;99.90
14471;DHT22;7321;50.802;4.336;2024-01-16T10:25:21;2.30;99.90
14471;DHT22;7321;50.802;4.336;2024-01-16T10:27:49;2.20;99.90
14471;DHT22;7321;50.802;4.336;2024-01-16T10:30:28;2.00;99.90
14471;DHT22;7321;50.802;4.336;2024-01-16T10:32:53;1.90;99.90
14471;DHT22;7321;50.802;4.336;2024-01-16T10:35:32;1.80;99.90
14471;DHT22;7321;50.802;4.336;2024-01-16T10:38:27;1.80;99.90
14471;DHT22;7321;50.802;4.336;2024-01-16T10:41:38;1.90;99.90
14471;DHT22;7321;50.802;4.336;2024-01-16T10:44:28;1.90;99.90
14471;DHT22;7321;50.802;4.336;2024-01-16T10:47:15;1.90;99.90
14471;DHT22;7321;50.802;4.336;2024-01-16T10:49:44;1.90;99.90
14471;DHT22;7321;50.802;4.336;2024-01-16T10:52:38;1.70;99.90
14471;DHT22;7321;50.802;4.336;2024-01-16T10:55:07;1.80;99.90
14471;DHT22;7321;50.802;4.336;2024-01-16T10:57:39;2.10;99.90
14471;DHT22;7321;50.802;4.336;2024-01-16T11:00:09;2.00;99.90
14471;DHT22;7321;50.802;4.336;2024-01-16T11:02:44;2.10;99.90
14471;DHT22;7321;50.802;4.336;2024-01-16T11:05:12;2.40;99.90
14471;DHT22;7321;50.802;4.336;2024-01-16T11:07:51;2.50;99.90
14471;DHT22;7321;50.802;4.336;2024-01-16T11:10:32;2.40;99.90
14471;DHT22;7321;50.802;4.336;2024-01-16T11:13:02;2.40;99.90
14471;DHT22;7321;50.802;4.336;2024-01-16T11:15:44;2.50;99.90
14471;DHT22;7321;50.802;4.336;2024-01-16T11:18:14;2.50;99.90
14471;DHT22;7321;50.802;4.336;2024-01-16T11:20:57;2.30;99.90
14471;DHT22;7321;50.802;4.336;2024-01-16T11:23:36;2.20;99.90
14471;DHT22;7321;50.802;4.336;2024-01-16T11:31:57;2.40;99.90
14471;DHT22;7321;50.802;4.336;2024-01-16T11:37:44;2.40;99.90
14471;DHT22;7321;50.802;4.336;2024-01-16T11:40:20;2.40;99.90
14471;DHT22;7321;50.802;4.336;2024-01-16T11:46:26;2.50;99.90
14471;DHT22;7321;50.802;4.336;2024-01-16T11:49:30;2.50;99.90
14471;DHT22;7321;50.802;4.336;2024-01-16T11:59:01;2.90;99.90
14471;DHT22;7321;50.802;4.336;2024-01-16T12:01:49;3.00;99.90
14471;DHT22;7321;50.802;4.336;2024-01-16T12:05:20;2.90;99.90
14471;DHT22;7321;50.802;4.336;2024-01-16T12:08:36;3.00;99.90
14471;DHT22;7321;50.802;4.336;2024-01-16T12:11:18;3.00;99.90
14471;DHT22;7321;50.802;4.336;2024-01-16T12:14:09;3.20;99.90
14471;DHT22;7321;50.802;4.336;2024-01-16T12:27:01;3.20;99.90
14471;DHT22;7321;50.802;4.336;2024-01-16T12:30:05;3.20;99.90
14471;DHT22;7321;50.802;4.336;2024-01-16T12:33:13;3.30;99.90
14471;DHT22;7321;50.802;4.336;2024-01-16T12:36:13;3.10;99.90
14471;DHT22;7321;50.802;4.336;2024-01-16T12:43:07;3.20;99.90
14471;DHT22;7321;50.802;4.336;2024-01-16T12:49:45;3.70;99.90
14471;DHT22;7321;50.802;4.336;2024-01-16T12:59:30;3.50;99.90
14471;DHT22;7321;50.802;4.336;2024-01-16T13:06:03;3.10;99.90
14471;DHT22;7321;50.802;4.336;2024-01-16T13:11:29;3.00;99.90
14471;DHT22;7321;50.802;4.336;2024-01-16T13:17:36;3.00;99.90
14471;DHT22;7321;50.802;4.336;2024-01-16T13:20:14;3.10;99.90
14471;DHT22;7321;50.802;4.336;2024-01-16T13:26:52;3.00;99.90
14471;DHT22;7321;50.802;4.336;2024-01-16T13:29:27;3.00;99.90
14471;DHT22;7321;50.802;4.336;2024-01-16T13:31:59;3.00;99.90
14471;DHT22;7321;50.802;4.336;2024-01-16T13:34:26;3.20;99.90
14471;DHT22;7321;50.802;4.336;2024-01-16T13:44:24;3.70;99.90
14471;DHT22;7321;50.802;4.336;2024-01-16T13:50:30;3.60;99.90
14471;DHT22;7321;50.802;4.336;2024-01-16T13:53:17;3.40;99.90
14471;DHT22;7321;50.802;4.336;2024-01-16T13:55:58;3.40;99.90
14471;DHT22;7321;50.802;4.336;2024-01-16T13:58:29;3.60;99.90
14471;DHT22;7321;50.802;4.336;2024-01-16T14:01:19;3.60;99.90
14471;DHT22;7321;50.802;4.336;2024-01-16T14:03:49;3.40;99.90
14471;DHT22;7321;50.802;4.336;2024-01-16T14:06:15;3.40;99.90
14471;DHT22;7321;50.802;4.336;2024-01-16T14:09:04;3.50;99.90
14471;DHT22;7321;50.802;4.336;2024-01-16T14:11:51;3.70;99.90
14471;DHT22;7321;50.802;4.336;2024-01-16T14:14:19;3.50;99.90
14471;DHT22;7321;50.802;4.336;2024-01-16T14:17:19;3.50;99.90
14471;DHT22;7321;50.802;4.336;2024-01-16T14:19:45;3.60;99.90
14471;DHT22;7321;50.802;4.336;2024-01-16T14:22:10;3.60;99.90
14471;DHT22;7321;50.802;4.336;2024-01-16T14:24:42;3.50;99.90
14471;DHT22;7321;50.802;4.336;2024-01-16T14:27:18;3.40;99.90
14471;DHT22;7321;50.802;4.336;2024-01-16T14:29:57;3.60;99.90
14471;DHT22;7321;50.802;4.336;2024-01-16T14:32:34;3.40;99.90
14471;DHT22;7321;50.802;4.336;2024-01-16T14:35:07;3.40;99.90
14471;DHT22;7321;50.802;4.336;2024-01-16T14:37:45;3.40;99.90
14471;DHT22;7321;50.802;4.336;2024-01-16T14:40:22;3.40;99.90
14471;DHT22;7321;50.802;4.336;2024-01-16T14:42:57;3.40;99.90
14471;DHT22;7321;50.802;4.336;2024-01-16T14:45:31;3.50;99.90
14471;DHT22;7321;50.802;4.336;2024-01-16T14:48:06;3.50;99.90
14471;DHT22;7321;50.802;4.336;2024-01-16T14:50:34;3.60;99.90
14471;DHT22;7321;50.802;4.336;2024-01-16T14:53:03;3.70;99.90
14471;DHT22;7321;50.802;4.336;2024-01-16T14:55:47;3.60;99.90
14471;DHT22;7321;50.802;4.336;2024-01-16T14:58:43;3.50;99.90
14471;DHT22;7321;50.802;4.336;2024-01-16T15:01:12;3.50;99.90
14471;DHT22;7321;50.802;4.336;2024-01-16T15:03:42;3.50;99.90
14471;DHT22;7321;50.802;4.336;2024-01-16T15:06:24;3.70;99.90
14471;DHT22;7321;50.802;4.336;2024-01-16T15:08:54;3.70;99.90
14471;DHT22;7321;50.802;4.336;2024-01-16T15:11:22;3.80;99.90
14471;DHT22;7321;50.802;4.336;2024-01-16T15:13:51;4.00;99.90
14471;DHT22;7321;50.802;4.336;2024-01-16T15:16:23;4.00;99.90
14471;DHT22;7321;50.802;4.336;2024-01-16T15:18:52;3.90;99.90
14471;DHT22;7321;50.802;4.336;2024-01-16T15:21:20;3.80;99.90
14471;DHT22;7321;50.802;4.336;2024-01-16T15:23:52;3.90;99.90
14471;DHT22;7321;50.802;4.336;2024-01-16T15:26:32;3.80;99.90
14471;DHT22;7321;50.802;4.336;2024-01-16T15:29:03;3.80;99.90
14471;DHT22;7321;50.802;4.336;2024-01-16T15:31:43;4.00;99.90
14471;DHT22;7321;50.802;4.336;2024-01-16T15:34:18;3.90;99.90
14471;DHT22;7321;50.802;4.336;2024-01-16T15:37:11;3.90;99.90
14471;DHT22;7321;50.802;4.336;2024-01-16T15:43:36;3.70;99.90
14471;DHT22;7321;50.802;4.336;2024-01-16T15:46:06;3.70;99.90
14471;DHT22;7321;50.802;4.336;2024-01-16T15:48:31;3.90;99.90
14471;DHT22;7321;50.802;4.336;2024-01-16T15:51:05;3.90;99.90
14471;DHT22;7321;50.802;4.336;2024-01-16T15:53:37;4.00;99.90
14471;DHT22;7321;50.802;4.336;2024-01-16T16:00:08;3.90;99.90
14471;DHT22;7321;50.802;4.336;2024-01-16T16:02:35;4.10;99.90
14471;DHT22;7321;50.802;4.336;2024-01-16T16:05:13;4.00;99.90
14471;DHT22;7321;50.802;4.336;2024-01-16T16:07:48;4.00;99.90
14471;DHT22;7321;50.802;4.336;2024-01-16T16:10:19;3.80;99.90
14471;DHT22;7321;50.802;4.336;2024-01-16T16:12:56;3.60;99.90
14471;DHT22;7321;50.802;4.336;2024-01-16T16:15:24;3.60;99.90
14471;DHT22;7321;50.802;4.336;2024-01-16T16:17:55;3.80;99.90
14471;DHT22;7321;50.802;4.336;2024-01-16T16:20:27;3.70;99.90
14471;DHT22;7321;50.802;4.336;2024-01-16T16:22:53;3.60;99.90
14471;DHT22;7321;50.802;4.336;2024-01-16T16:28:27;3.90;99.90
14471;DHT22;7321;50.802;4.336;2024-01-16T16:31:02;3.80;99.90
14471;DHT22;7321;50.802;4.336;2024-01-16T16:33:36;3.90;99.90
14471;DHT22;7321;50.802;4.336;2024-01-16T16:36:04;3.80;99.90
14471;DHT22;7321;50.802;4.336;2024-01-16T16:38:38;3.80;99.90
14471;DHT22;7321;50.802;4.336;2024-01-16T16:47:05;3.70;99.90
14471;DHT22;7321;50.802;4.336;2024-01-16T16:49:41;3.60;99.90
14471;DHT22;7321;50.802;4.336;2024-01-16T16:52:14;3.60;99.90
14471;DHT22;7321;50.802;4.336;2024-01-16T16:58:06;3.60;99.90
14471;DHT22;7321;50.802;4.336;2024-01-16T17:00:37;3.60;99.90
14471;DHT22;7321;50.802;4.336;2024-01-16T17:03:12;3.50;99.90
14471;DHT22;7321;50.802;4.336;2024-01-16T17:05:46;3.50;99.90
14471;DHT22;7321;50.802;4.336;2024-01-16T17:09:07;3.50;99.90
14471;DHT22;7321;50.802;4.336;2024-01-16T17:11:38;3.40;99.90
14471;DHT22;7321;50.802;4.336;2024-01-16T17:14:04;3.40;99.90
14471;DHT22;7321;50.802;4.336;2024-01-16T17:16:30;3.30;99.90
14471;DHT22;7321;50.802;4.336;2024-01-16T17:18:56;3.20;99.90
14471;DHT22;7321;50.802;4.336;2024-01-16T17:21:22;3.10;99.90
14471;DHT22;7321;50.802;4.336;2024-01-16T17:23:48;3.10;99.90
14471;DHT22;7321;50.802;4.336;2024-01-16T17:26:16;3.20;99.90
14471;DHT22;7321;50.802;4.336;2024-01-16T17:28:42;3.20;99.90
14471;DHT22;7321;50.802;4.336;2024-01-16T17:31:08;3.10;99.90
14471;DHT22;7321;50.802;4.336;2024-01-16T17:33:34;3.00;99.90
14471;DHT22;7321;50.802;4.336;2024-01-16T17:36:03;3.10;99.90
14471;DHT22;7321;50.802;4.336;2024-01-16T17:38:36;3.10;99.90
14471;DHT22;7321;50.802;4.336;2024-01-16T17:41:02;3.10;99.90
14471;DHT22;7321;50.802;4.336;2024-01-16T17:43:30;3.20;99.90
14471;DHT22;7321;50.802;4.336;2024-01-16T17:45:56;3.20;99.90
14471;DHT22;7321;50.802;4.336;2024-01-16T17:48:23;3.10;99.90
14471;DHT22;7321;50.802;4.336;2024-01-16T17:50:50;3.00;99.90
14471;DHT22;7321;50.802;4.336;2024-01-16T17:53:18;3.00;99.90
14471;DHT22;7321;50.802;4.336;2024-01-16T17:55:45;2.80;99.90
14471;DHT22;7321;50.802;4.336;2024-01-16T17:58:12;2.80;99.90
14471;DHT22;7321;50.802;4.336;2024-01-16T18:00:38;2.80;99.90
14471;DHT22;7321;50.802;4.336;2024-01-16T18:03:04;2.90;99.90